sensor_id;sensor_type;location;lat;lon;timestamp;P1;durP1;ratioP1;P2;durP2;ratioP2
60935;SDS011;46804;51.786;19.520;2023-11-21T00:02:47;41.15;;;11.15;;
60935;SDS011;46804;51.786;19.520;2023-11-21T00:06:48;29.75;;;9.95;;
60935;SDS011;46804;51.786;19.520;2023-11-21T00:10:48;45.67;;;13.00;;
60935;SDS011;46804;51.786;19.520;2023-11-21T00:14:49;35.10;;;11.95;;
60935;SDS011;46804;51.786;19.520;2023-11-21T00:18:50;28.80;;;11.93;;
60935;SDS011;46804;51.786;19.520;2023-11-21T00:22:51;39.00;;;11.90;;
60935;SDS011;46804;51.786;19.520;2023-11-21T00:26:52;32.22;;;13.90;;
60935;SDS011;46804;51.786;19.520;2023-11-21T00:30:53;51.05;;;13.73;;
60935;SDS011;46804;51.786;19.520;2023-11-21T00:34:54;34.25;;;13.63;;
60935;SDS011;46804;51.786;19.520;2023-11-21T00:38:55;37.33;;;11.85;;
60935;SDS011;46804;51.786;19.520;2023-11-21T00:42:56;22.90;;;10.75;;
60935;SDS011;46804;51.786;19.520;2023-11-21T00:46:57;38.00;;;12.30;;
60935;SDS011;46804;51.786;19.520;2023-11-21T00:50:57;32.80;;;13.32;;
60935;SDS011;46804;51.786;19.520;2023-11-21T00:54:59;45.13;;;13.10;;
60935;SDS011;46804;51.786;19.520;2023-11-21T00:59:00;30.50;;;12.43;;
60935;SDS011;46804;51.786;19.520;2023-11-21T01:03:01;31.38;;;12.55;;
60935;SDS011;46804;51.786;19.520;2023-11-21T01:07:03;52.70;;;12.85;;
60935;SDS011;46804;51.786;19.520;2023-11-21T01:11:04;31.00;;;12.73;;
60935;SDS011;46804;51.786;19.520;2023-11-21T01:15:08;37.83;;;13.40;;
60935;SDS011;46804;51.786;19.520;2023-11-21T01:19:09;33.72;;;11.38;;
60935;SDS011;46804;51.786;19.520;2023-11-21T01:23:10;37.90;;;12.98;;
60935;SDS011;46804;51.786;19.520;2023-11-21T01:27:10;39.58;;;11.73;;
60935;SDS011;46804;51.786;19.520;2023-11-21T01:31:11;29.73;;;12.40;;
60935;SDS011;46804;51.786;19.520;2023-11-21T01:35:13;29.98;;;13.15;;
60935;SDS011;46804;51.786;19.520;2023-11-21T01:39:14;27.73;;;10.98;;
60935;SDS011;46804;51.786;19.520;2023-11-21T01:43:16;37.78;;;13.18;;
60935;SDS011;46804;51.786;19.520;2023-11-21T01:47:17;36.25;;;12.50;;
60935;SDS011;46804;51.786;19.520;2023-11-21T01:51:18;32.72;;;12.35;;
60935;SDS011;46804;51.786;19.520;2023-11-21T01:55:19;34.05;;;11.23;;
60935;SDS011;46804;51.786;19.520;2023-11-21T01:59:20;41.90;;;13.15;;
60935;SDS011;46804;51.786;19.520;2023-11-21T02:03:22;37.17;;;12.25;;
60935;SDS011;46804;51.786;19.520;2023-11-21T02:07:23;31.67;;;12.45;;
60935;SDS011;46804;51.786;19.520;2023-11-21T02:11:24;31.65;;;12.75;;
60935;SDS011;46804;51.786;19.520;2023-11-21T02:15:27;47.08;;;13.07;;
60935;SDS011;46804;51.786;19.520;2023-11-21T02:19:29;59.72;;;13.00;;
60935;SDS011;46804;51.786;19.520;2023-11-21T02:23:30;32.85;;;12.10;;
60935;SDS011;46804;51.786;19.520;2023-11-21T02:27:31;33.60;;;12.13;;
60935;SDS011;46804;51.786;19.520;2023-11-21T02:31:32;42.72;;;12.45;;
60935;SDS011;46804;51.786;19.520;2023-11-21T02:35:33;40.75;;;11.60;;
60935;SDS011;46804;51.786;19.520;2023-11-21T02:39:35;55.92;;;13.32;;
60935;SDS011;46804;51.786;19.520;2023-11-21T02:43:36;32.10;;;12.13;;
60935;SDS011;46804;51.786;19.520;2023-11-21T02:47:39;52.90;;;12.05;;
60935;SDS011;46804;51.786;19.520;2023-11-21T02:51:40;39.20;;;11.55;;
60935;SDS011;46804;51.786;19.520;2023-11-21T02:55:41;39.08;;;12.50;;
60935;SDS011;46804;51.786;19.520;2023-11-21T02:59:42;34.47;;;11.60;;
60935;SDS011;46804;51.786;19.520;2023-11-21T03:03:43;27.88;;;12.13;;
60935;SDS011;46804;51.786;19.520;2023-11-21T03:07:44;41.45;;;13.63;;
60935;SDS011;46804;51.786;19.520;2023-11-21T03:11:45;52.42;;;14.02;;
60935;SDS011;46804;51.786;19.520;2023-11-21T03:15:46;24.63;;;11.50;;
60935;SDS011;46804;51.786;19.520;2023-11-21T03:19:47;50.42;;;12.35;;
60935;SDS011;46804;51.786;19.520;2023-11-21T03:23:48;63.17;;;14.68;;
60935;SDS011;46804;51.786;19.520;2023-11-21T03:27:49;39.25;;;12.55;;
60935;SDS011;46804;51.786;19.520;2023-11-21T03:31:50;33.83;;;10.93;;
60935;SDS011;46804;51.786;19.520;2023-11-21T03:35:51;35.72;;;12.10;;
60935;SDS011;46804;51.786;19.520;2023-11-21T03:39:54;42.20;;;13.05;;
60935;SDS011;46804;51.786;19.520;2023-11-21T03:43:56;39.40;;;11.20;;
60935;SDS011;46804;51.786;19.520;2023-11-21T03:47:57;27.85;;;11.57;;
60935;SDS011;46804;51.786;19.520;2023-11-21T03:51:58;25.67;;;10.95;;
60935;SDS011;46804;51.786;19.520;2023-11-21T03:55:59;33.15;;;11.93;;
60935;SDS011;46804;51.786;19.520;2023-11-21T04:00:03;27.73;;;11.88;;
60935;SDS011;46804;51.786;19.520;2023-11-21T04:04:08;28.42;;;11.07;;
60935;SDS011;46804;51.786;19.520;2023-11-21T04:08:09;28.42;;;12.02;;
60935;SDS011;46804;51.786;19.520;2023-11-21T04:12:10;30.85;;;11.95;;
60935;SDS011;46804;51.786;19.520;2023-11-21T04:16:11;47.75;;;12.25;;
60935;SDS011;46804;51.786;19.520;2023-11-21T04:20:11;27.63;;;11.40;;
60935;SDS011;46804;51.786;19.520;2023-11-21T04:24:12;61.95;;;12.13;;
60935;SDS011;46804;51.786;19.520;2023-11-21T04:28:13;48.05;;;13.15;;
60935;SDS011;46804;51.786;19.520;2023-11-21T04:32:14;37.05;;;12.23;;
60935;SDS011;46804;51.786;19.520;2023-11-21T04:36:15;33.38;;;12.75;;
60935;SDS011;46804;51.786;19.520;2023-11-21T04:40:16;26.05;;;11.18;;
60935;SDS011;46804;51.786;19.520;2023-11-21T04:44:17;58.03;;;13.38;;
60935;SDS011;46804;51.786;19.520;2023-11-21T04:48:18;28.52;;;12.50;;
60935;SDS011;46804;51.786;19.520;2023-11-21T04:52:19;29.30;;;11.68;;
60935;SDS011;46804;51.786;19.520;2023-11-21T04:56:20;53.58;;;13.10;;
60935;SDS011;46804;51.786;19.520;2023-11-21T05:00:21;39.40;;;11.35;;
60935;SDS011;46804;51.786;19.520;2023-11-21T05:04:22;29.10;;;11.35;;
60935;SDS011;46804;51.786;19.520;2023-11-21T05:08:23;72.13;;;12.13;;
60935;SDS011;46804;51.786;19.520;2023-11-21T05:12:24;41.67;;;10.40;;
60935;SDS011;46804;51.786;19.520;2023-11-21T05:16:27;35.53;;;10.43;;
60935;SDS011;46804;51.786;19.520;2023-11-21T05:20:28;32.70;;;11.07;;
60935;SDS011;46804;51.786;19.520;2023-11-21T05:24:29;42.70;;;10.48;;
60935;SDS011;46804;51.786;19.520;2023-11-21T05:28:30;57.40;;;11.00;;
60935;SDS011;46804;51.786;19.520;2023-11-21T05:32:31;40.95;;;11.13;;
60935;SDS011;46804;51.786;19.520;2023-11-21T05:36:32;24.45;;;10.02;;
60935;SDS011;46804;51.786;19.520;2023-11-21T05:40:34;36.28;;;10.23;;
60935;SDS011;46804;51.786;19.520;2023-11-21T05:44:35;25.08;;;10.20;;
60935;SDS011;46804;51.786;19.520;2023-11-21T05:48:35;38.83;;;9.88;;
60935;SDS011;46804;51.786;19.520;2023-11-21T05:52:38;33.35;;;8.95;;
60935;SDS011;46804;51.786;19.520;2023-11-21T05:56:42;33.40;;;9.13;;
60935;SDS011;46804;51.786;19.520;2023-11-21T06:00:43;24.15;;;9.02;;
60935;SDS011;46804;51.786;19.520;2023-11-21T06:04:44;16.48;;;8.70;;
60935;SDS011;46804;51.786;19.520;2023-11-21T06:08:45;21.23;;;7.85;;
60935;SDS011;46804;51.786;19.520;2023-11-21T06:12:46;21.60;;;8.30;;
60935;SDS011;46804;51.786;19.520;2023-11-21T06:16:47;30.10;;;8.70;;
60935;SDS011;46804;51.786;19.520;2023-11-21T06:20:47;19.08;;;8.45;;
60935;SDS011;46804;51.786;19.520;2023-11-21T06:24:48;27.67;;;8.15;;
60935;SDS011;46804;51.786;19.520;2023-11-21T06:28:49;20.30;;;8.23;;
60935;SDS011;46804;51.786;19.520;2023-11-21T06:32:51;25.77;;;7.60;;
60935;SDS011;46804;51.786;19.520;2023-11-21T06:36:53;36.30;;;8.38;;
60935;SDS011;46804;51.786;19.520;2023-11-21T06:40:53;20.23;;;7.65;;
60935;SDS011;46804;51.786;19.520;2023-11-21T06:44:55;17.67;;;7.68;;
60935;SDS011;46804;51.786;19.520;2023-11-21T06:48:59;11.85;;;7.05;;
60935;SDS011;46804;51.786;19.520;2023-11-21T06:53:01;17.15;;;8.45;;
60935;SDS011;46804;51.786;19.520;2023-11-21T06:57:04;14.40;;;6.60;;
60935;SDS011;46804;51.786;19.520;2023-11-21T07:01:05;12.38;;;6.20;;
60935;SDS011;46804;51.786;19.520;2023-11-21T07:05:07;11.68;;;6.32;;
60935;SDS011;46804;51.786;19.520;2023-11-21T07:09:08;12.48;;;6.72;;
60935;SDS011;46804;51.786;19.520;2023-11-21T07:13:09;16.25;;;7.35;;
60935;SDS011;46804;51.786;19.520;2023-11-21T07:17:12;15.40;;;7.82;;
60935;SDS011;46804;51.786;19.520;2023-11-21T07:21:13;11.45;;;5.97;;
60935;SDS011;46804;51.786;19.520;2023-11-21T07:25:16;13.93;;;6.97;;
60935;SDS011;46804;51.786;19.520;2023-11-21T07:29:17;10.73;;;5.88;;
60935;SDS011;46804;51.786;19.520;2023-11-21T07:33:18;15.90;;;6.13;;
60935;SDS011;46804;51.786;19.520;2023-11-21T07:37:19;8.52;;;5.13;;
60935;SDS011;46804;51.786;19.520;2023-11-21T07:41:20;13.85;;;6.25;;
60935;SDS011;46804;51.786;19.520;2023-11-21T07:45:21;14.80;;;6.45;;
60935;SDS011;46804;51.786;19.520;2023-11-21T07:49:23;10.38;;;6.15;;
60935;SDS011;46804;51.786;19.520;2023-11-21T07:53:27;12.02;;;6.10;;
60935;SDS011;46804;51.786;19.520;2023-11-21T07:57:30;8.85;;;5.65;;
60935;SDS011;46804;51.786;19.520;2023-11-21T08:01:31;10.77;;;5.38;;
60935;SDS011;46804;51.786;19.520;2023-11-21T08:05:32;13.02;;;6.22;;
60935;SDS011;46804;51.786;19.520;2023-11-21T08:09:33;8.45;;;5.32;;
60935;SDS011;46804;51.786;19.520;2023-11-21T08:13:35;13.85;;;7.32;;
60935;SDS011;46804;51.786;19.520;2023-11-21T08:17:35;9.38;;;6.43;;
60935;SDS011;46804;51.786;19.520;2023-11-21T08:21:36;15.25;;;7.50;;
60935;SDS011;46804;51.786;19.520;2023-11-21T08:25:39;10.13;;;5.87;;
60935;SDS011;46804;51.786;19.520;2023-11-21T08:29:40;11.07;;;5.75;;
60935;SDS011;46804;51.786;19.520;2023-11-21T08:33:41;13.63;;;7.00;;
60935;SDS011;46804;51.786;19.520;2023-11-21T08:37:41;12.07;;;7.45;;
60935;SDS011;46804;51.786;19.520;2023-11-21T08:41:43;13.43;;;7.22;;
60935;SDS011;46804;51.786;19.520;2023-11-21T08:45:44;15.70;;;8.00;;
60935;SDS011;46804;51.786;19.520;2023-11-21T08:49:44;11.88;;;7.50;;
60935;SDS011;46804;51.786;19.520;2023-11-21T08:53:46;14.70;;;8.05;;
60935;SDS011;46804;51.786;19.520;2023-11-21T08:57:47;14.30;;;7.78;;
60935;SDS011;46804;51.786;19.520;2023-11-21T09:01:49;16.73;;;8.18;;
60935;SDS011;46804;51.786;19.520;2023-11-21T09:05:50;14.10;;;7.85;;
60935;SDS011;46804;51.786;19.520;2023-11-21T09:09:51;12.35;;;7.20;;
60935;SDS011;46804;51.786;19.520;2023-11-21T09:13:52;13.43;;;7.40;;
60935;SDS011;46804;51.786;19.520;2023-11-21T09:17:53;10.77;;;6.45;;
60935;SDS011;46804;51.786;19.520;2023-11-21T09:21:54;10.57;;;6.65;;
60935;SDS011;46804;51.786;19.520;2023-11-21T09:25:54;13.07;;;7.18;;
60935;SDS011;46804;51.786;19.520;2023-11-21T09:29:57;11.82;;;6.40;;
60935;SDS011;46804;51.786;19.520;2023-11-21T09:33:58;9.85;;;6.55;;
60935;SDS011;46804;51.786;19.520;2023-11-21T09:37:59;10.07;;;5.43;;
60935;SDS011;46804;51.786;19.520;2023-11-21T09:42:09;12.07;;;6.30;;
60935;SDS011;46804;51.786;19.520;2023-11-21T09:46:16;10.43;;;5.80;;
60935;SDS011;46804;51.786;19.520;2023-11-21T09:50:21;19.15;;;10.25;;
60935;SDS011;46804;51.786;19.520;2023-11-21T09:54:23;11.43;;;6.93;;
60935;SDS011;46804;51.786;19.520;2023-11-21T09:58:24;11.93;;;6.80;;
60935;SDS011;46804;51.786;19.520;2023-11-21T10:02:26;10.65;;;5.13;;
60935;SDS011;46804;51.786;19.520;2023-11-21T10:06:35;11.13;;;6.90;;
60935;SDS011;46804;51.786;19.520;2023-11-21T10:10:37;11.88;;;7.05;;
60935;SDS011;46804;51.786;19.520;2023-11-21T10:14:42;7.85;;;4.95;;
60935;SDS011;46804;51.786;19.520;2023-11-21T10:18:44;10.07;;;5.72;;
60935;SDS011;46804;51.786;19.520;2023-11-21T10:22:46;10.80;;;5.72;;
60935;SDS011;46804;51.786;19.520;2023-11-21T10:26:47;12.10;;;6.72;;
60935;SDS011;46804;51.786;19.520;2023-11-21T10:30:49;9.35;;;5.57;;
60935;SDS011;46804;51.786;19.520;2023-11-21T10:34:56;12.30;;;6.68;;
60935;SDS011;46804;51.786;19.520;2023-11-21T10:38:57;11.70;;;6.50;;
60935;SDS011;46804;51.786;19.520;2023-11-21T10:43:07;9.35;;;5.88;;
60935;SDS011;46804;51.786;19.520;2023-11-21T10:47:13;13.38;;;7.90;;
60935;SDS011;46804;51.786;19.520;2023-11-21T10:51:16;9.43;;;5.40;;
60935;SDS011;46804;51.786;19.520;2023-11-21T10:55:19;8.55;;;5.80;;
60935;SDS011;46804;51.786;19.520;2023-11-21T10:59:22;10.85;;;7.07;;
60935;SDS011;46804;51.786;19.520;2023-11-21T11:03:25;7.47;;;5.00;;
60935;SDS011;46804;51.786;19.520;2023-11-21T11:07:26;9.35;;;6.47;;
60935;SDS011;46804;51.786;19.520;2023-11-21T11:11:30;10.23;;;6.45;;
60935;SDS011;46804;51.786;19.520;2023-11-21T11:15:30;10.30;;;6.20;;
60935;SDS011;46804;51.786;19.520;2023-11-21T11:19:31;9.35;;;5.97;;
60935;SDS011;46804;51.786;19.520;2023-11-21T11:28:07;10.95;;;6.70;;
60935;SDS011;46804;51.786;19.520;2023-11-21T11:36:34;11.05;;;6.78;;
60935;SDS011;46804;51.786;19.520;2023-11-21T11:40:39;11.23;;;5.97;;
60935;SDS011;46804;51.786;19.520;2023-11-21T11:48:46;9.63;;;5.50;;
60935;SDS011;46804;51.786;19.520;2023-11-21T11:52:49;11.55;;;6.43;;
60935;SDS011;46804;51.786;19.520;2023-11-21T11:56:52;12.50;;;5.88;;
60935;SDS011;46804;51.786;19.520;2023-11-21T12:00:53;11.48;;;5.85;;
60935;SDS011;46804;51.786;19.520;2023-11-21T12:04:55;9.93;;;5.88;;
60935;SDS011;46804;51.786;19.520;2023-11-21T12:09:00;9.73;;;5.70;;
60935;SDS011;46804;51.786;19.520;2023-11-21T12:13:03;13.90;;;6.85;;
60935;SDS011;46804;51.786;19.520;2023-11-21T12:17:07;13.85;;;6.65;;
60935;SDS011;46804;51.786;19.520;2023-11-21T12:21:09;8.98;;;5.95;;
60935;SDS011;46804;51.786;19.520;2023-11-21T12:25:10;10.65;;;6.32;;
60935;SDS011;46804;51.786;19.520;2023-11-21T12:29:16;10.48;;;6.80;;
60935;SDS011;46804;51.786;19.520;2023-11-21T12:33:17;10.82;;;7.13;;
60935;SDS011;46804;51.786;19.520;2023-11-21T12:37:19;11.73;;;6.25;;
60935;SDS011;46804;51.786;19.520;2023-11-21T12:41:19;15.93;;;8.85;;
60935;SDS011;46804;51.786;19.520;2023-11-21T12:45:23;16.80;;;8.18;;
60935;SDS011;46804;51.786;19.520;2023-11-21T12:49:28;13.07;;;6.95;;
60935;SDS011;46804;51.786;19.520;2023-11-21T12:53:29;13.18;;;8.60;;
60935;SDS011;46804;51.786;19.520;2023-11-21T12:57:37;12.73;;;7.82;;
60935;SDS011;46804;51.786;19.520;2023-11-21T13:01:43;15.93;;;9.20;;
60935;SDS011;46804;51.786;19.520;2023-11-21T13:05:45;12.77;;;7.90;;
60935;SDS011;46804;51.786;19.520;2023-11-21T13:09:51;21.23;;;11.13;;
60935;SDS011;46804;51.786;19.520;2023-11-21T13:13:52;19.73;;;9.40;;
60935;SDS011;46804;51.786;19.520;2023-11-21T13:17:54;18.52;;;10.38;;
60935;SDS011;46804;51.786;19.520;2023-11-21T13:21:58;21.02;;;11.82;;
60935;SDS011;46804;51.786;19.520;2023-11-21T13:25:59;15.63;;;9.30;;
60935;SDS011;46804;51.786;19.520;2023-11-21T13:30:04;15.65;;;9.00;;
60935;SDS011;46804;51.786;19.520;2023-11-21T13:34:07;20.65;;;11.80;;
60935;SDS011;46804;51.786;19.520;2023-11-21T13:38:09;16.75;;;10.57;;
60935;SDS011;46804;51.786;19.520;2023-11-21T13:42:12;15.25;;;9.35;;
60935;SDS011;46804;51.786;19.520;2023-11-21T13:46:13;17.08;;;9.63;;
60935;SDS011;46804;51.786;19.520;2023-11-21T13:50:18;17.80;;;9.40;;
60935;SDS011;46804;51.786;19.520;2023-11-21T13:54:23;16.00;;;10.15;;
60935;SDS011;46804;51.786;19.520;2023-11-21T13:58:25;21.83;;;11.13;;
60935;SDS011;46804;51.786;19.520;2023-11-21T14:02:44;15.93;;;9.90;;
60935;SDS011;46804;51.786;19.520;2023-11-21T14:06:46;26.40;;;12.32;;
60935;SDS011;46804;51.786;19.520;2023-11-21T14:14:51;17.10;;;10.48;;
60935;SDS011;46804;51.786;19.520;2023-11-21T14:18:52;19.63;;;10.88;;
60935;SDS011;46804;51.786;19.520;2023-11-21T14:22:59;21.60;;;13.45;;
60935;SDS011;46804;51.786;19.520;2023-11-21T14:26:59;20.98;;;12.02;;
60935;SDS011;46804;51.786;19.520;2023-11-21T14:31:00;17.23;;;10.18;;
60935;SDS011;46804;51.786;19.520;2023-11-21T14:35:01;25.75;;;12.23;;
60935;SDS011;46804;51.786;19.520;2023-11-21T14:39:04;24.13;;;12.80;;
60935;SDS011;46804;51.786;19.520;2023-11-21T14:43:09;24.33;;;11.90;;
60935;SDS011;46804;51.786;19.520;2023-11-21T14:47:10;19.17;;;11.10;;
60935;SDS011;46804;51.786;19.520;2023-11-21T14:51:15;17.35;;;9.02;;
60935;SDS011;46804;51.786;19.520;2023-11-21T14:55:31;15.18;;;8.13;;
60935;SDS011;46804;51.786;19.520;2023-11-21T14:59:51;29.23;;;12.45;;
60935;SDS011;46804;51.786;19.520;2023-11-21T15:03:52;21.77;;;11.63;;
60935;SDS011;46804;51.786;19.520;2023-11-21T15:07:54;25.55;;;12.38;;
60935;SDS011;46804;51.786;19.520;2023-11-21T15:16:28;21.17;;;11.82;;
60935;SDS011;46804;51.786;19.520;2023-11-21T15:20:29;24.35;;;11.82;;
60935;SDS011;46804;51.786;19.520;2023-11-21T15:24:31;19.63;;;11.68;;
60935;SDS011;46804;51.786;19.520;2023-11-21T15:28:31;11.80;;;7.70;;
60935;SDS011;46804;51.786;19.520;2023-11-21T15:32:33;26.00;;;11.57;;
60935;SDS011;46804;51.786;19.520;2023-11-21T15:36:33;26.38;;;11.07;;
60935;SDS011;46804;51.786;19.520;2023-11-21T15:40:34;24.80;;;13.38;;
60935;SDS011;46804;51.786;19.520;2023-11-21T15:44:35;22.58;;;11.63;;
60935;SDS011;46804;51.786;19.520;2023-11-21T15:48:37;17.17;;;10.32;;
60935;SDS011;46804;51.786;19.520;2023-11-21T15:52:41;21.83;;;11.50;;
60935;SDS011;46804;51.786;19.520;2023-11-21T15:56:44;26.05;;;13.40;;
60935;SDS011;46804;51.786;19.520;2023-11-21T16:00:45;21.70;;;12.85;;
60935;SDS011;46804;51.786;19.520;2023-11-21T16:04:45;22.10;;;11.80;;
60935;SDS011;46804;51.786;19.520;2023-11-21T16:08:46;23.38;;;11.63;;
60935;SDS011;46804;51.786;19.520;2023-11-21T16:12:48;24.05;;;12.05;;
60935;SDS011;46804;51.786;19.520;2023-11-21T16:16:49;18.33;;;8.27;;
60935;SDS011;46804;51.786;19.520;2023-11-21T16:20:50;21.73;;;11.50;;
60935;SDS011;46804;51.786;19.520;2023-11-21T16:24:51;22.33;;;13.30;;
60935;SDS011;46804;51.786;19.520;2023-11-21T16:28:52;21.77;;;11.48;;
60935;SDS011;46804;51.786;19.520;2023-11-21T16:32:53;25.00;;;11.75;;
60935;SDS011;46804;51.786;19.520;2023-11-21T16:36:55;27.70;;;13.75;;
60935;SDS011;46804;51.786;19.520;2023-11-21T16:40:59;25.92;;;14.77;;
60935;SDS011;46804;51.786;19.520;2023-11-21T16:44:59;21.30;;;11.43;;
60935;SDS011;46804;51.786;19.520;2023-11-21T16:49:00;23.85;;;13.85;;
60935;SDS011;46804;51.786;19.520;2023-11-21T16:53:01;26.80;;;12.63;;
60935;SDS011;46804;51.786;19.520;2023-11-21T16:57:02;26.08;;;13.60;;
60935;SDS011;46804;51.786;19.520;2023-11-21T17:01:03;23.15;;;12.07;;
60935;SDS011;46804;51.786;19.520;2023-11-21T17:05:07;23.30;;;10.65;;
60935;SDS011;46804;51.786;19.520;2023-11-21T17:09:08;24.95;;;13.00;;
60935;SDS011;46804;51.786;19.520;2023-11-21T17:13:10;23.88;;;12.68;;
60935;SDS011;46804;51.786;19.520;2023-11-21T17:17:11;21.83;;;9.38;;
60935;SDS011;46804;51.786;19.520;2023-11-21T17:21:14;26.60;;;12.67;;
60935;SDS011;46804;51.786;19.520;2023-11-21T17:25:16;23.40;;;12.48;;
60935;SDS011;46804;51.786;19.520;2023-11-21T17:29:18;27.70;;;13.05;;
60935;SDS011;46804;51.786;19.520;2023-11-21T17:33:19;20.38;;;12.82;;
60935;SDS011;46804;51.786;19.520;2023-11-21T17:37:21;28.20;;;13.68;;
60935;SDS011;46804;51.786;19.520;2023-11-21T17:41:21;25.80;;;12.98;;
60935;SDS011;46804;51.786;19.520;2023-11-21T17:45:23;29.70;;;15.25;;
60935;SDS011;46804;51.786;19.520;2023-11-21T17:49:25;19.77;;;11.65;;
60935;SDS011;46804;51.786;19.520;2023-11-21T17:53:25;33.15;;;18.17;;
60935;SDS011;46804;51.786;19.520;2023-11-21T17:57:26;21.42;;;11.55;;
60935;SDS011;46804;51.786;19.520;2023-11-21T18:01:28;21.23;;;11.38;;
60935;SDS011;46804;51.786;19.520;2023-11-21T18:05:33;25.70;;;12.02;;
60935;SDS011;46804;51.786;19.520;2023-11-21T18:09:34;23.75;;;13.35;;
60935;SDS011;46804;51.786;19.520;2023-11-21T18:13:35;25.60;;;13.45;;
60935;SDS011;46804;51.786;19.520;2023-11-21T18:17:36;29.98;;;15.27;;
60935;SDS011;46804;51.786;19.520;2023-11-21T18:21:40;34.25;;;15.07;;
60935;SDS011;46804;51.786;19.520;2023-11-21T18:25:42;24.55;;;12.52;;
60935;SDS011;46804;51.786;19.520;2023-11-21T18:29:44;23.40;;;11.10;;
60935;SDS011;46804;51.786;19.520;2023-11-21T18:33:45;36.28;;;15.27;;
60935;SDS011;46804;51.786;19.520;2023-11-21T18:37:46;24.98;;;12.73;;
60935;SDS011;46804;51.786;19.520;2023-11-21T18:41:47;22.17;;;13.52;;
60935;SDS011;46804;51.786;19.520;2023-11-21T18:45:48;27.23;;;14.23;;
60935;SDS011;46804;51.786;19.520;2023-11-21T18:49:49;25.80;;;12.38;;
60935;SDS011;46804;51.786;19.520;2023-11-21T18:53:50;21.55;;;10.98;;
60935;SDS011;46804;51.786;19.520;2023-11-21T18:57:51;29.35;;;12.13;;
60935;SDS011;46804;51.786;19.520;2023-11-21T19:01:51;24.00;;;13.18;;
60935;SDS011;46804;51.786;19.520;2023-11-21T19:05:52;32.63;;;13.82;;
60935;SDS011;46804;51.786;19.520;2023-11-21T19:09:54;24.30;;;11.57;;
60935;SDS011;46804;51.786;19.520;2023-11-21T19:13:55;22.08;;;13.02;;
60935;SDS011;46804;51.786;19.520;2023-11-21T19:17:56;24.02;;;12.70;;
60935;SDS011;46804;51.786;19.520;2023-11-21T19:21:58;25.45;;;13.82;;
60935;SDS011;46804;51.786;19.520;2023-11-21T19:25:59;29.67;;;14.98;;
60935;SDS011;46804;51.786;19.520;2023-11-21T19:30:00;25.70;;;13.95;;
60935;SDS011;46804;51.786;19.520;2023-11-21T19:34:02;24.55;;;12.20;;
60935;SDS011;46804;51.786;19.520;2023-11-21T19:38:02;23.48;;;12.55;;
60935;SDS011;46804;51.786;19.520;2023-11-21T19:42:03;23.95;;;11.95;;
60935;SDS011;46804;51.786;19.520;2023-11-21T19:46:05;23.45;;;12.95;;
60935;SDS011;46804;51.786;19.520;2023-11-21T19:50:07;20.02;;;11.02;;
60935;SDS011;46804;51.786;19.520;2023-11-21T19:54:10;18.55;;;10.18;;
60935;SDS011;46804;51.786;19.520;2023-11-21T19:58:11;29.88;;;12.57;;
60935;SDS011;46804;51.786;19.520;2023-11-21T20:02:14;21.67;;;12.00;;
60935;SDS011;46804;51.786;19.520;2023-11-21T20:06:15;19.33;;;11.23;;
60935;SDS011;46804;51.786;19.520;2023-11-21T20:10:16;20.40;;;10.43;;
60935;SDS011;46804;51.786;19.520;2023-11-21T20:14:18;23.27;;;12.95;;
60935;SDS011;46804;51.786;19.520;2023-11-21T20:18:19;25.27;;;12.63;;
60935;SDS011;46804;51.786;19.520;2023-11-21T20:22:20;21.67;;;12.38;;
60935;SDS011;46804;51.786;19.520;2023-11-21T20:26:22;15.50;;;9.88;;
60935;SDS011;46804;51.786;19.520;2023-11-21T20:30:23;25.60;;;12.15;;
60935;SDS011;46804;51.786;19.520;2023-11-21T20:34:28;24.48;;;13.50;;
60935;SDS011;46804;51.786;19.520;2023-11-21T20:38:29;25.20;;;13.30;;
60935;SDS011;46804;51.786;19.520;2023-11-21T20:42:30;22.77;;;11.40;;
60935;SDS011;46804;51.786;19.520;2023-11-21T20:46:32;24.60;;;12.88;;
60935;SDS011;46804;51.786;19.520;2023-11-21T20:50:33;23.20;;;12.20;;
60935;SDS011;46804;51.786;19.520;2023-11-21T20:54:35;25.88;;;13.45;;
60935;SDS011;46804;51.786;19.520;2023-11-21T20:58:36;21.15;;;11.10;;
60935;SDS011;46804;51.786;19.520;2023-11-21T21:02:38;27.10;;;13.25;;
60935;SDS011;46804;51.786;19.520;2023-11-21T21:06:39;26.33;;;12.23;;
60935;SDS011;46804;51.786;19.520;2023-11-21T21:10:40;23.90;;;11.75;;
60935;SDS011;46804;51.786;19.520;2023-11-21T21:14:41;28.50;;;13.05;;
60935;SDS011;46804;51.786;19.520;2023-11-21T21:18:42;24.73;;;12.88;;
60935;SDS011;46804;51.786;19.520;2023-11-21T21:22:43;22.98;;;12.20;;
60935;SDS011;46804;51.786;19.520;2023-11-21T21:26:44;19.45;;;12.40;;
60935;SDS011;46804;51.786;19.520;2023-11-21T21:30:45;17.35;;;9.60;;
60935;SDS011;46804;51.786;19.520;2023-11-21T21:34:46;22.05;;;11.05;;
60935;SDS011;46804;51.786;19.520;2023-11-21T21:38:46;14.93;;;9.15;;
60935;SDS011;46804;51.786;19.520;2023-11-21T21:42:48;23.67;;;10.65;;
60935;SDS011;46804;51.786;19.520;2023-11-21T21:46:49;17.17;;;9.07;;
60935;SDS011;46804;51.786;19.520;2023-11-21T21:50:50;17.77;;;9.23;;
60935;SDS011;46804;51.786;19.520;2023-11-21T21:54:51;18.60;;;8.98;;
60935;SDS011;46804;51.786;19.520;2023-11-21T21:58:52;13.85;;;8.52;;
60935;SDS011;46804;51.786;19.520;2023-11-21T22:02:54;21.65;;;9.90;;
60935;SDS011;46804;51.786;19.520;2023-11-21T22:06:56;19.05;;;9.32;;
60935;SDS011;46804;51.786;19.520;2023-11-21T22:10:57;13.38;;;7.75;;
60935;SDS011;46804;51.786;19.520;2023-11-21T22:14:59;13.55;;;7.30;;
60935;SDS011;46804;51.786;19.520;2023-11-21T22:19:00;17.10;;;7.25;;
60935;SDS011;46804;51.786;19.520;2023-11-21T22:23:01;16.65;;;7.55;;
60935;SDS011;46804;51.786;19.520;2023-11-21T22:27:02;15.02;;;6.55;;
60935;SDS011;46804;51.786;19.520;2023-11-21T22:31:03;13.40;;;7.53;;
60935;SDS011;46804;51.786;19.520;2023-11-21T22:35:04;14.32;;;7.18;;
60935;SDS011;46804;51.786;19.520;2023-11-21T22:39:05;17.13;;;7.28;;
60935;SDS011;46804;51.786;19.520;2023-11-21T22:43:09;11.80;;;6.07;;
60935;SDS011;46804;51.786;19.520;2023-11-21T22:47:12;14.75;;;6.93;;
60935;SDS011;46804;51.786;19.520;2023-11-21T22:51:16;13.52;;;7.78;;
60935;SDS011;46804;51.786;19.520;2023-11-21T22:55:18;14.85;;;7.63;;
60935;SDS011;46804;51.786;19.520;2023-11-21T22:59:19;11.43;;;6.13;;
60935;SDS011;46804;51.786;19.520;2023-11-21T23:03:20;18.30;;;6.95;;
60935;SDS011;46804;51.786;19.520;2023-11-21T23:07:21;13.88;;;7.28;;
60935;SDS011;46804;51.786;19.520;2023-11-21T23:11:22;12.05;;;7.05;;
60935;SDS011;46804;51.786;19.520;2023-11-21T23:15:22;19.52;;;5.72;;
60935;SDS011;46804;51.786;19.520;2023-11-21T23:19:25;15.13;;;7.50;;
60935;SDS011;46804;51.786;19.520;2023-11-21T23:23:26;11.05;;;6.05;;
60935;SDS011;46804;51.786;19.520;2023-11-21T23:27:27;9.90;;;5.38;;
60935;SDS011;46804;51.786;19.520;2023-11-21T23:31:28;10.20;;;5.60;;
60935;SDS011;46804;51.786;19.520;2023-11-21T23:35:29;10.80;;;6.32;;
60935;SDS011;46804;51.786;19.520;2023-11-21T23:39:31;8.48;;;4.57;;
60935;SDS011;46804;51.786;19.520;2023-11-21T23:43:33;13.02;;;5.40;;
60935;SDS011;46804;51.786;19.520;2023-11-21T23:47:34;11.10;;;6.28;;